• Join FlightAware (Why Join?)
  • Login
  • US Flag 
 
05:52PM EST


 

Airport Tracker/Info


-or-


 

Live Flight TrackerFlight Track Log ✈ EJA929 ✈ 03-Jul-2013 ✈ KSJC - KASE

Flight Track Log - Related Links

Times and Time Zones

All times are in EDT time to prevent confusion due to time zone crossing. See the EJA929 flight status page for this flight to view local times or setup timezone preferences in your user account.

Time Position Orientation Groundspeed Altitude Reporting Facility
EDT Latitude Longitude Course Direction KTS MPH feet Rate Location/Type
11:10AM 37.4167 -121.9667 345° North 234 269 3,400  Level Northern Cal TRACON
11:11AM 37.3833 -121.9000 122° Southeast 214 246 5,000 2,040 Climbing Northern Cal TRACON
11:12AM 37.3333 -121.8500 142° Southeast 233 268 7,500 2,040 Climbing Northern Cal TRACON
11:13AM 37.2833 -121.8500 180° South 294 338 9,100 1,800 Climbing Northern Cal TRACON
11:15AM 37.3386 -121.9144 317° Northwest 293 337 11,400 1,680 Climbing Oakland Center
11:16AM 37.4194 -121.8906 13° North 311 358 12,800 960 Climbing Oakland Center
11:17AM 37.4828 -121.8000 49° Northeast 349 402 13,400 780 Climbing Oakland Center
11:18AM 37.5544 -121.7044 47° Northeast 370 426 14,400 1,020 Climbing Oakland Center
11:19AM 37.6278 -121.6050 47° Northeast 383 441 15,600 1,260 Climbing Oakland Center
11:20AM 37.7211 -121.4814 46° Northeast 397 457 17,000 1,260 Climbing Oakland Center
11:21AM 37.7992 -121.3772 47° Northeast 407 468 18,200 1,200 Climbing Oakland Center
11:22AM 37.8783 -121.2694 47° Northeast 418 481 19,500 1,260 Climbing Oakland Center
11:23AM 37.9194 -121.1339 69° East 423 487 20,800 1,320 Climbing Oakland Center
11:24AM 37.9447 -120.9894 77° East 423 487 22,200 1,260 Climbing Oakland Center
11:25AM 37.9694 -120.8428 78° East 429 494 23,400 1,200 Climbing Oakland Center
11:26AM 37.9944 -120.6939 78° East 434 499 24,700 1,140 Climbing Oakland Center
11:27AM 38.0203 -120.5428 78° East 440 506 25,800 1,140 Climbing Oakland Center
11:28AM 38.0503 -120.3589 78° East 444 511 27,100 1,080 Climbing Oakland Center
11:29AM 38.0769 -120.2003 78° East 453 521 28,100 1,020 Climbing Oakland Center
11:30AM 38.1047 -120.0378 78° East 465 535 29,200 1,020 Climbing Oakland Center
11:31AM 38.1317 -119.8769 78° East 466 536 30,200 900 Climbing Oakland Center
11:32AM 38.1561 -119.7128 79° East 471 542 31,100 900 Climbing Oakland Center
11:33AM 38.1836 -119.5461 78° East 479 551 32,100 1,020 Climbing Oakland Center
11:34AM 38.2131 -119.3639 78° East 493 567 33,300 1,380 Climbing Oakland Center
11:35AM 38.2386 -119.1950 79° East 489 563 35,000 1,020 Climbing Oakland Center
11:36AM 38.2622 -119.0231 80° East 498 573 35,400 660 Climbing Oakland Center
11:37AM 38.2669 -118.8475 88° East 498 573 36,400 1,020 Climbing Oakland Center
11:38AM 38.2692 -118.6347 89° East 503 579 37,500 1,020 Climbing Oakland Center
11:39AM 38.2717 -118.4586 89° East 502 578 38,500 720 Climbing Oakland Center
11:40AM 38.2731 -118.2839 89° East 499 574 39,000 240 Climbing Oakland Center
11:41AM 38.2750 -118.1031 89° East 504 580 39,000 480 Level Oakland Center
11:42AM 38.2764 -117.9233 89° East 508 585 40,000 900 Climbing Oakland Center
11:43AM 38.2778 -117.7447 89° East 505 581 40,900 540 Climbing Oakland Center
11:44AM 38.2789 -117.6025 89° East 504 580 41,000  Climbing Salt Lake Center
11:45AM 38.2797 -117.4211 90° East 508 585 41,000  Level Salt Lake Center
11:46AM 38.2803 -117.1753 90° East 512 589 41,000  Level Oakland Center
11:47AM 38.2806 -117.0469 90° East 520 598 41,000  Level Salt Lake Center
11:48AM 38.2797 -116.8625 90° East 517 595 41,000  Level Salt Lake Center
11:49AM 38.2783 -116.6789 90° East 516 594 41,000  Level Salt Lake Center
11:50AM 38.2781 -116.4583 90° East 520 598 41,000  Level Salt Lake Center
11:51AM 38.2772 -116.2736 90° East 520 598 41,000  Level Salt Lake Center
11:52AM 38.2753 -116.0903 91° East 519 597 41,000  Level Salt Lake Center
11:53AM 38.2722 -115.9075 91° East 518 596 41,000  Level Salt Lake Center
11:54AM 38.2703 -115.7228 91° East 521 600 41,000  Level Salt Lake Center
11:55AM 38.2678 -115.5392 91° East 520 598 41,000  Level Salt Lake Center
11:56AM 38.2672 -115.3189 90° East 520 598 41,000  Level Salt Lake Center
11:58AM 38.2631 -115.1272 92° East 525 604 41,000  Level Salt Lake Center
11:59AM 38.2589 -114.9433 92° East 522 601 41,000  Level Salt Lake Center
12:00PM 38.2536 -114.7581 92° East 524 603 41,000  Level Salt Lake Center
12:01PM 38.2539 -114.5722 90° East 526 605 41,000  Level Salt Lake Center
12:02PM 38.2506 -114.3864 91° East 527 606 41,000  Level Salt Lake Center
12:03PM 38.2658 -114.2019 84° East 525 604 41,000  Level Salt Lake Center
12:04PM 38.2811 -114.0192 84° East 521 600 41,000  Level Salt Lake Center
12:05PM 38.2989 -113.8003 84° East 517 595 41,000  Level Salt Lake Center
12:06PM 38.3142 -113.6172 84° East 517 595 41,000  Level Salt Lake Center
12:07PM 38.3283 -113.4350 84° East 516 594 41,000  Level Salt Lake Center
12:08PM 38.3433 -113.2519 84° East 517 595 41,000  Level Salt Lake Center
12:09PM 38.3572 -113.0669 84° East 522 601 41,000  Level Salt Lake Center
12:10PM 38.3836 -112.8850 79° East 522 601 41,000  Level Salt Lake Center
12:11PM 38.4172 -112.7069 76° East 518 596 41,000  Level Salt Lake Center
12:12PM 38.4569 -112.4928 77° East 516 594 41,000  Level Salt Lake Center
12:13PM 38.4897 -112.3158 77° East 514 592 41,000  Level Salt Lake Center
12:14PM 38.5217 -112.1369 77° East 515 593 41,000  Level Salt Lake Center
12:15PM 38.5528 -111.9572 77° East 517 595 41,000  Level Salt Lake Center
12:16PM 38.5853 -111.7781 77° East 518 596 41,000  Level Salt Lake Center
12:17PM 38.6158 -111.5986 78° East 517 595 41,000  Level Salt Lake Center
12:18PM 38.6533 -111.3836 77° East 517 595 41,000  Level Salt Lake Center
12:19PM 38.6814 -111.2067 78° East 511 588 41,000  Level Salt Lake Center
12:20PM 38.7114 -111.0311 78° East 508 585 41,000  Level Salt Lake Center
12:21PM 38.7372 -110.8547 79° East 508 585 41,000  Level Salt Lake Center
12:23PM 38.7975 -110.4861 78° East 511 588 41,000  Level Salt Lake Center
12:24PM 38.8303 -110.2900 78° East 506 582 41,000  Level Salt Lake Center
12:25PM 38.8564 -110.1217 79° East 504 580 41,000  Level Salt Lake Center
12:26PM 38.8872 -109.9281 78° East 499 574 41,000  Level Salt Lake Center
12:27PM 38.9136 -109.7611 78° East 499 574 41,000  Level Salt Lake Center
12:29PM 38.9433 -109.5683 79° East 495 570 41,000  Level Salt Lake Center
12:30PM 38.9603 -109.4006 83° East 495 570 41,000 -540 Level Salt Lake Center
12:31PM 38.9742 -109.2022 85° East 499 574 39,900 -960 Descending Salt Lake Center
12:31PM 38.9758 -109.1711 86° East 502 578 39,600 -1,440 Descending Denver Center
12:32PM 38.9931 -108.9428 84° East 503 579 37,700 -1,680 Descending Denver Center
12:33PM 39.0081 -108.7433 84° East 505 581 36,100 -840 Descending Denver Center
12:34PM 39.0197 -108.5783 85° East 492 566 36,000 -60 Descending Denver Center
12:35PM 39.0325 -108.3878 85° East 485 558 36,000  Level Denver Center
12:36PM 39.0442 -108.2181 85° East 503 579 36,000  Level Denver Center
12:37PM 39.0572 -108.0158 85° East 510 587 36,000 -780 Level Denver Center
12:38PM 39.0694 -107.8403 85° East 515 593 34,400 -2,220 Descending Denver Center
12:39PM 39.0772 -107.6472 87° East 490 564 31,500 -2,820 Descending Denver Center
12:40PM 39.0761 -107.4897 90° East 468 539 28,600 -3,060 Descending Denver Center
12:41PM 39.0778 -107.3178 89° East 439 505 25,200 -3,060 Descending Denver Center
12:42PM 39.0808 -107.1808 88° East 410 472 22,300 -2,760 Descending Denver Center
12:44PM 39.0850 -107.0550 88° East 388 447 19,500 -2,700 Descending Denver Center
12:45PM 39.1133 -106.9133 76° East 354 407 16,800 -1,260 Descending Denver Center
12:46PM 39.1678 -106.8417 46° Northeast 293 337 16,900  Climbing Denver Center
12:47PM 39.2244 -106.7894 36° Northeast 268 308 16,800 -1,260 Descending Denver Center
12:48PM 39.2864 -106.7889 360° North 225 259 14,300 -1,440 Descending Denver Center
12:49PM 39.3500 -106.7861 North 229 264 13,900 -1,200 Descending Denver Center
12:50PM 39.3611 -106.8536 282° West 242 278 11,900 -2,400 Descending Denver Center
12:51PM 39.3022 -106.8975 210° Southwest 206 237 9,000 -1,740 Descending Denver Center
12:52PM 39.2622 -106.8928 175° South 186 214 8,400 -600 Descending Denver Center